sensor_id;sensor_type;location;lat;lon;timestamp;temperature;humidity
9311;DHT22;4694;52.464;13.480;2024-02-15T00:00:15;9.10;99.90
9311;DHT22;4694;52.464;13.480;2024-02-15T00:02:42;9.10;99.90
9311;DHT22;4694;52.464;13.480;2024-02-15T00:05:11;9.10;99.90
9311;DHT22;4694;52.464;13.480;2024-02-15T00:07:40;9.10;99.90
9311;DHT22;4694;52.464;13.480;2024-02-15T00:10:07;9.10;99.90
9311;DHT22;4694;52.464;13.480;2024-02-15T00:12:34;9.10;99.90
9311;DHT22;4694;52.464;13.480;2024-02-15T00:15:01;9.10;99.90
9311;DHT22;4694;52.464;13.480;2024-02-15T00:17:28;9.10;99.90
9311;DHT22;4694;52.464;13.480;2024-02-15T00:19:55;9.10;99.90
9311;DHT22;4694;52.464;13.480;2024-02-15T00:22:23;9.10;99.90
9311;DHT22;4694;52.464;13.480;2024-02-15T00:24:50;9.10;99.90
9311;DHT22;4694;52.464;13.480;2024-02-15T00:27:16;9.10;99.90
9311;DHT22;4694;52.464;13.480;2024-02-15T00:29:43;9.10;99.90
9311;DHT22;4694;52.464;13.480;2024-02-15T00:32:09;9.10;99.90
9311;DHT22;4694;52.464;13.480;2024-02-15T00:34:36;9.10;99.90
9311;DHT22;4694;52.464;13.480;2024-02-15T00:37:04;9.10;99.90
9311;DHT22;4694;52.464;13.480;2024-02-15T00:39:31;9.10;99.90
9311;DHT22;4694;52.464;13.480;2024-02-15T00:41:58;9.10;99.90
9311;DHT22;4694;52.464;13.480;2024-02-15T00:44:25;9.10;99.90
9311;DHT22;4694;52.464;13.480;2024-02-15T00:46:52;9.10;99.90
9311;DHT22;4694;52.464;13.480;2024-02-15T00:49:19;9.20;99.90
9311;DHT22;4694;52.464;13.480;2024-02-15T00:51:46;9.10;99.90
9311;DHT22;4694;52.464;13.480;2024-02-15T00:54:13;9.10;99.90
9311;DHT22;4694;52.464;13.480;2024-02-15T00:56:41;9.10;99.90
9311;DHT22;4694;52.464;13.480;2024-02-15T00:59:07;9.10;99.90
9311;DHT22;4694;52.464;13.480;2024-02-15T01:01:34;9.10;99.90
9311;DHT22;4694;52.464;13.480;2024-02-15T01:04:03;9.10;99.90
9311;DHT22;4694;52.464;13.480;2024-02-15T01:06:30;9.10;99.90
9311;DHT22;4694;52.464;13.480;2024-02-15T01:08:56;9.10;99.90
9311;DHT22;4694;52.464;13.480;2024-02-15T01:11:23;9.20;99.90
9311;DHT22;4694;52.464;13.480;2024-02-15T01:13:52;9.10;99.90
9311;DHT22;4694;52.464;13.480;2024-02-15T01:16:19;9.10;99.90
9311;DHT22;4694;52.464;13.480;2024-02-15T01:18:47;9.20;99.90
9311;DHT22;4694;52.464;13.480;2024-02-15T01:21:13;9.20;99.90
9311;DHT22;4694;52.464;13.480;2024-02-15T01:23:40;9.10;99.90
9311;DHT22;4694;52.464;13.480;2024-02-15T01:26:06;9.20;99.90
9311;DHT22;4694;52.464;13.480;2024-02-15T01:28:34;9.20;99.90
9311;DHT22;4694;52.464;13.480;2024-02-15T01:31:02;9.20;99.90
9311;DHT22;4694;52.464;13.480;2024-02-15T01:33:28;9.20;99.90
9311;DHT22;4694;52.464;13.480;2024-02-15T01:35:57;9.20;99.90
9311;DHT22;4694;52.464;13.480;2024-02-15T01:38:23;9.10;99.90
9311;DHT22;4694;52.464;13.480;2024-02-15T01:40:49;9.20;99.90
9311;DHT22;4694;52.464;13.480;2024-02-15T01:43:16;9.20;99.90
9311;DHT22;4694;52.464;13.480;2024-02-15T01:45:43;9.20;99.90
9311;DHT22;4694;52.464;13.480;2024-02-15T01:48:14;9.20;99.90
9311;DHT22;4694;52.464;13.480;2024-02-15T01:50:42;9.20;99.90
9311;DHT22;4694;52.464;13.480;2024-02-15T01:53:09;9.20;99.90
9311;DHT22;4694;52.464;13.480;2024-02-15T01:55:37;9.20;99.90
9311;DHT22;4694;52.464;13.480;2024-02-15T01:58:05;9.20;99.90
9311;DHT22;4694;52.464;13.480;2024-02-15T02:00:32;9.20;99.90
9311;DHT22;4694;52.464;13.480;2024-02-15T02:02:59;9.20;99.90
9311;DHT22;4694;52.464;13.480;2024-02-15T02:05:29;9.20;99.90
9311;DHT22;4694;52.464;13.480;2024-02-15T02:07:56;9.20;99.90
9311;DHT22;4694;52.464;13.480;2024-02-15T02:10:26;9.20;99.90
9311;DHT22;4694;52.464;13.480;2024-02-15T02:12:55;9.20;99.90
9311;DHT22;4694;52.464;13.480;2024-02-15T02:15:22;9.20;99.90
9311;DHT22;4694;52.464;13.480;2024-02-15T02:17:49;9.20;99.90
9311;DHT22;4694;52.464;13.480;2024-02-15T02:20:16;9.20;99.90
9311;DHT22;4694;52.464;13.480;2024-02-15T02:22:47;9.30;99.90
9311;DHT22;4694;52.464;13.480;2024-02-15T02:25:16;9.30;99.90
9311;DHT22;4694;52.464;13.480;2024-02-15T02:27:44;9.30;99.90
9311;DHT22;4694;52.464;13.480;2024-02-15T02:30:15;9.20;99.90
9311;DHT22;4694;52.464;13.480;2024-02-15T02:32:45;9.30;99.90
9311;DHT22;4694;52.464;13.480;2024-02-15T02:35:12;9.30;99.90
9311;DHT22;4694;52.464;13.480;2024-02-15T02:37:39;9.30;99.90
9311;DHT22;4694;52.464;13.480;2024-02-15T02:40:06;9.30;99.90
9311;DHT22;4694;52.464;13.480;2024-02-15T02:42:36;9.30;99.90
9311;DHT22;4694;52.464;13.480;2024-02-15T02:45:03;9.30;99.90
9311;DHT22;4694;52.464;13.480;2024-02-15T02:47:30;9.30;99.90
9311;DHT22;4694;52.464;13.480;2024-02-15T02:49:57;9.30;99.90
9311;DHT22;4694;52.464;13.480;2024-02-15T02:52:25;9.30;99.90
9311;DHT22;4694;52.464;13.480;2024-02-15T02:54:52;9.30;99.90
9311;DHT22;4694;52.464;13.480;2024-02-15T02:57:18;9.30;99.90
9311;DHT22;4694;52.464;13.480;2024-02-15T02:59:46;9.30;99.90
9311;DHT22;4694;52.464;13.480;2024-02-15T03:02:13;9.30;99.90
9311;DHT22;4694;52.464;13.480;2024-02-15T03:04:39;9.30;99.90
9311;DHT22;4694;52.464;13.480;2024-02-15T03:07:06;9.30;99.90
9311;DHT22;4694;52.464;13.480;2024-02-15T03:09:33;9.30;99.90
9311;DHT22;4694;52.464;13.480;2024-02-15T03:12:01;9.30;99.90
9311;DHT22;4694;52.464;13.480;2024-02-15T03:14:27;9.30;99.90
9311;DHT22;4694;52.464;13.480;2024-02-15T03:16:57;9.40;99.90
9311;DHT22;4694;52.464;13.480;2024-02-15T03:19:23;9.30;99.90
9311;DHT22;4694;52.464;13.480;2024-02-15T03:21:51;9.30;99.90
9311;DHT22;4694;52.464;13.480;2024-02-15T03:24:18;9.40;99.90
9311;DHT22;4694;52.464;13.480;2024-02-15T03:26:45;9.30;99.90
9311;DHT22;4694;52.464;13.480;2024-02-15T03:29:11;9.40;99.90
9311;DHT22;4694;52.464;13.480;2024-02-15T03:31:38;9.30;99.90
9311;DHT22;4694;52.464;13.480;2024-02-15T03:34:06;9.40;99.90
9311;DHT22;4694;52.464;13.480;2024-02-15T03:36:33;9.40;99.90
9311;DHT22;4694;52.464;13.480;2024-02-15T03:39:00;9.40;99.90
9311;DHT22;4694;52.464;13.480;2024-02-15T03:41:27;9.40;99.90
9311;DHT22;4694;52.464;13.480;2024-02-15T03:43:56;9.40;99.90
9311;DHT22;4694;52.464;13.480;2024-02-15T03:46:24;9.40;99.90
9311;DHT22;4694;52.464;13.480;2024-02-15T03:48:51;9.40;99.90
9311;DHT22;4694;52.464;13.480;2024-02-15T03:51:20;9.40;99.90
9311;DHT22;4694;52.464;13.480;2024-02-15T03:53:48;9.40;99.90
9311;DHT22;4694;52.464;13.480;2024-02-15T03:56:15;9.40;99.90
9311;DHT22;4694;52.464;13.480;2024-02-15T03:58:41;9.40;99.90
9311;DHT22;4694;52.464;13.480;2024-02-15T04:01:08;9.40;99.90
9311;DHT22;4694;52.464;13.480;2024-02-15T04:03:35;9.40;99.90
9311;DHT22;4694;52.464;13.480;2024-02-15T04:06:02;9.40;99.90
9311;DHT22;4694;52.464;13.480;2024-02-15T04:08:31;9.40;99.90
9311;DHT22;4694;52.464;13.480;2024-02-15T04:10:58;9.40;99.90
9311;DHT22;4694;52.464;13.480;2024-02-15T04:13:25;9.40;99.90
9311;DHT22;4694;52.464;13.480;2024-02-15T04:15:52;9.40;99.90
9311;DHT22;4694;52.464;13.480;2024-02-15T04:18:19;9.40;99.90
9311;DHT22;4694;52.464;13.480;2024-02-15T04:20:45;9.40;99.90
9311;DHT22;4694;52.464;13.480;2024-02-15T04:23:14;9.40;99.90
9311;DHT22;4694;52.464;13.480;2024-02-15T04:25:42;9.40;99.90
9311;DHT22;4694;52.464;13.480;2024-02-15T04:28:09;9.40;99.90
9311;DHT22;4694;52.464;13.480;2024-02-15T04:30:36;9.50;99.90
9311;DHT22;4694;52.464;13.480;2024-02-15T04:33:05;9.40;99.90
9311;DHT22;4694;52.464;13.480;2024-02-15T04:35:33;9.50;99.90
9311;DHT22;4694;52.464;13.480;2024-02-15T04:38:00;9.50;99.90
9311;DHT22;4694;52.464;13.480;2024-02-15T04:40:29;9.50;99.90
9311;DHT22;4694;52.464;13.480;2024-02-15T04:42:57;9.50;99.90
9311;DHT22;4694;52.464;13.480;2024-02-15T04:45:23;9.50;99.90
9311;DHT22;4694;52.464;13.480;2024-02-15T04:47:51;9.50;99.90
9311;DHT22;4694;52.464;13.480;2024-02-15T04:50:20;9.50;99.90
9311;DHT22;4694;52.464;13.480;2024-02-15T04:52:47;9.50;99.90
9311;DHT22;4694;52.464;13.480;2024-02-15T04:55:15;9.50;99.90
9311;DHT22;4694;52.464;13.480;2024-02-15T04:57:43;9.60;99.90
9311;DHT22;4694;52.464;13.480;2024-02-15T05:00:12;9.50;99.90
9311;DHT22;4694;52.464;13.480;2024-02-15T05:02:40;9.50;99.90
9311;DHT22;4694;52.464;13.480;2024-02-15T05:05:09;9.50;99.90
9311;DHT22;4694;52.464;13.480;2024-02-15T05:07:35;9.50;99.90
9311;DHT22;4694;52.464;13.480;2024-02-15T05:10:03;9.60;99.90
9311;DHT22;4694;52.464;13.480;2024-02-15T05:12:31;9.60;99.90
9311;DHT22;4694;52.464;13.480;2024-02-15T05:14:58;9.60;99.90
9311;DHT22;4694;52.464;13.480;2024-02-15T05:17:27;9.60;99.90
9311;DHT22;4694;52.464;13.480;2024-02-15T05:19:55;9.60;99.90
9311;DHT22;4694;52.464;13.480;2024-02-15T05:22:24;9.60;99.90
9311;DHT22;4694;52.464;13.480;2024-02-15T05:24:54;9.60;99.90
9311;DHT22;4694;52.464;13.480;2024-02-15T05:27:20;9.60;99.90
9311;DHT22;4694;52.464;13.480;2024-02-15T05:29:48;9.70;99.90
9311;DHT22;4694;52.464;13.480;2024-02-15T05:32:18;9.70;99.90
9311;DHT22;4694;52.464;13.480;2024-02-15T05:34:46;9.70;99.90
9311;DHT22;4694;52.464;13.480;2024-02-15T05:37:13;9.70;99.90
9311;DHT22;4694;52.464;13.480;2024-02-15T05:39:41;9.70;99.90
9311;DHT22;4694;52.464;13.480;2024-02-15T05:42:07;9.70;99.90
9311;DHT22;4694;52.464;13.480;2024-02-15T05:44:35;9.70;99.90
9311;DHT22;4694;52.464;13.480;2024-02-15T05:47:02;9.60;99.90
9311;DHT22;4694;52.464;13.480;2024-02-15T05:49:29;9.70;99.90
9311;DHT22;4694;52.464;13.480;2024-02-15T05:51:57;9.70;99.90
9311;DHT22;4694;52.464;13.480;2024-02-15T05:54:23;9.70;99.90
9311;DHT22;4694;52.464;13.480;2024-02-15T05:56:50;9.70;99.90
9311;DHT22;4694;52.464;13.480;2024-02-15T05:59:19;9.70;99.90
9311;DHT22;4694;52.464;13.480;2024-02-15T06:01:46;9.70;99.90
9311;DHT22;4694;52.464;13.480;2024-02-15T06:04:14;9.70;99.90
9311;DHT22;4694;52.464;13.480;2024-02-15T06:06:40;9.70;99.90
9311;DHT22;4694;52.464;13.480;2024-02-15T06:09:09;9.70;99.90
9311;DHT22;4694;52.464;13.480;2024-02-15T06:11:36;9.70;99.90
9311;DHT22;4694;52.464;13.480;2024-02-15T06:14:02;9.80;99.90
9311;DHT22;4694;52.464;13.480;2024-02-15T06:16:29;9.70;99.90
9311;DHT22;4694;52.464;13.480;2024-02-15T06:18:56;9.80;99.90
9311;DHT22;4694;52.464;13.480;2024-02-15T06:21:22;9.80;99.90
9311;DHT22;4694;52.464;13.480;2024-02-15T06:23:49;9.80;99.90
9311;DHT22;4694;52.464;13.480;2024-02-15T06:29:40;9.80;99.90
9311;DHT22;4694;52.464;13.480;2024-02-15T06:32:24;9.80;99.90
9311;DHT22;4694;52.464;13.480;2024-02-15T06:35:08;9.80;99.90
9311;DHT22;4694;52.464;13.480;2024-02-15T06:37:52;9.80;99.90
9311;DHT22;4694;52.464;13.480;2024-02-15T06:40:37;9.80;99.90
9311;DHT22;4694;52.464;13.480;2024-02-15T06:43:04;9.80;99.90
9311;DHT22;4694;52.464;13.480;2024-02-15T06:45:32;9.80;99.90
9311;DHT22;4694;52.464;13.480;2024-02-15T06:48:02;9.90;99.90
9311;DHT22;4694;52.464;13.480;2024-02-15T06:50:28;9.90;99.90
9311;DHT22;4694;52.464;13.480;2024-02-15T06:52:55;9.90;99.90
9311;DHT22;4694;52.464;13.480;2024-02-15T06:55:23;9.90;99.90
9311;DHT22;4694;52.464;13.480;2024-02-15T06:57:49;10.00;99.90
9311;DHT22;4694;52.464;13.480;2024-02-15T07:00:16;10.00;99.90
9311;DHT22;4694;52.464;13.480;2024-02-15T07:02:45;10.10;99.90
9311;DHT22;4694;52.464;13.480;2024-02-15T07:05:10;10.10;99.90
9311;DHT22;4694;52.464;13.480;2024-02-15T07:07:37;10.10;99.90
9311;DHT22;4694;52.464;13.480;2024-02-15T07:10:08;10.20;99.90
9311;DHT22;4694;52.464;13.480;2024-02-15T07:12:35;10.10;99.90
9311;DHT22;4694;52.464;13.480;2024-02-15T07:15:04;10.20;99.90
9311;DHT22;4694;52.464;13.480;2024-02-15T07:17:32;10.30;99.90
9311;DHT22;4694;52.464;13.480;2024-02-15T07:20:00;10.30;99.90
9311;DHT22;4694;52.464;13.480;2024-02-15T07:22:30;10.30;99.90
9311;DHT22;4694;52.464;13.480;2024-02-15T07:24:57;10.30;99.90
9311;DHT22;4694;52.464;13.480;2024-02-15T07:27:24;10.30;99.90
9311;DHT22;4694;52.464;13.480;2024-02-15T07:29:52;10.30;99.90
9311;DHT22;4694;52.464;13.480;2024-02-15T07:32:19;10.30;99.90
9311;DHT22;4694;52.464;13.480;2024-02-15T07:34:46;10.30;99.90
9311;DHT22;4694;52.464;13.480;2024-02-15T07:37:14;10.40;99.90
9311;DHT22;4694;52.464;13.480;2024-02-15T07:39:43;10.30;99.90
9311;DHT22;4694;52.464;13.480;2024-02-15T07:42:09;10.30;99.90
9311;DHT22;4694;52.464;13.480;2024-02-15T07:44:38;10.40;99.90
9311;DHT22;4694;52.464;13.480;2024-02-15T07:47:04;10.30;99.90
9311;DHT22;4694;52.464;13.480;2024-02-15T07:49:31;10.30;99.90
9311;DHT22;4694;52.464;13.480;2024-02-15T07:51:58;10.40;99.90
9311;DHT22;4694;52.464;13.480;2024-02-15T07:54:27;10.40;99.90
9311;DHT22;4694;52.464;13.480;2024-02-15T07:56:55;10.50;99.90
9311;DHT22;4694;52.464;13.480;2024-02-15T07:59:21;10.50;99.90
9311;DHT22;4694;52.464;13.480;2024-02-15T08:01:48;10.60;99.90
9311;DHT22;4694;52.464;13.480;2024-02-15T08:04:15;10.60;99.90
9311;DHT22;4694;52.464;13.480;2024-02-15T08:06:42;10.70;99.90
9311;DHT22;4694;52.464;13.480;2024-02-15T08:09:09;10.80;99.90
9311;DHT22;4694;52.464;13.480;2024-02-15T08:11:40;10.80;99.90
9311;DHT22;4694;52.464;13.480;2024-02-15T08:14:07;10.80;99.90
9311;DHT22;4694;52.464;13.480;2024-02-15T08:16:36;10.90;99.90
9311;DHT22;4694;52.464;13.480;2024-02-15T08:19:05;10.80;99.90
9311;DHT22;4694;52.464;13.480;2024-02-15T08:21:33;10.90;99.90
9311;DHT22;4694;52.464;13.480;2024-02-15T08:24:02;10.90;99.90
9311;DHT22;4694;52.464;13.480;2024-02-15T08:26:31;11.00;99.90
9311;DHT22;4694;52.464;13.480;2024-02-15T08:28:59;11.00;99.90
9311;DHT22;4694;52.464;13.480;2024-02-15T08:31:26;11.00;99.90
9311;DHT22;4694;52.464;13.480;2024-02-15T08:33:52;11.10;99.90
9311;DHT22;4694;52.464;13.480;2024-02-15T08:36:19;11.10;99.90
9311;DHT22;4694;52.464;13.480;2024-02-15T08:38:46;11.20;99.90
9311;DHT22;4694;52.464;13.480;2024-02-15T08:41:13;11.20;99.90
9311;DHT22;4694;52.464;13.480;2024-02-15T08:43:39;11.20;99.90
9311;DHT22;4694;52.464;13.480;2024-02-15T08:46:08;11.10;99.90
9311;DHT22;4694;52.464;13.480;2024-02-15T08:48:35;11.20;99.90
9311;DHT22;4694;52.464;13.480;2024-02-15T08:51:02;11.20;99.90
9311;DHT22;4694;52.464;13.480;2024-02-15T08:53:31;11.20;99.90
9311;DHT22;4694;52.464;13.480;2024-02-15T08:55:59;11.20;99.90
9311;DHT22;4694;52.464;13.480;2024-02-15T08:58:26;11.20;99.90
9311;DHT22;4694;52.464;13.480;2024-02-15T09:00:55;11.20;99.90
9311;DHT22;4694;52.464;13.480;2024-02-15T09:03:23;11.30;99.90
9311;DHT22;4694;52.464;13.480;2024-02-15T09:05:50;11.30;99.90
9311;DHT22;4694;52.464;13.480;2024-02-15T09:08:16;11.30;99.90
9311;DHT22;4694;52.464;13.480;2024-02-15T09:10:46;11.30;99.90
9311;DHT22;4694;52.464;13.480;2024-02-15T09:13:12;11.40;99.90
9311;DHT22;4694;52.464;13.480;2024-02-15T09:15:40;11.40;99.90
9311;DHT22;4694;52.464;13.480;2024-02-15T09:18:07;11.50;99.90
9311;DHT22;4694;52.464;13.480;2024-02-15T09:20:36;11.60;99.90
9311;DHT22;4694;52.464;13.480;2024-02-15T09:23:05;11.60;99.90
9311;DHT22;4694;52.464;13.480;2024-02-15T09:25:37;11.80;99.90
9311;DHT22;4694;52.464;13.480;2024-02-15T09:28:04;11.80;99.90
9311;DHT22;4694;52.464;13.480;2024-02-15T09:30:31;12.00;99.90
9311;DHT22;4694;52.464;13.480;2024-02-15T09:32:58;12.10;99.90
9311;DHT22;4694;52.464;13.480;2024-02-15T09:35:25;12.20;99.90
9311;DHT22;4694;52.464;13.480;2024-02-15T09:37:53;12.30;99.90
9311;DHT22;4694;52.464;13.480;2024-02-15T09:40:22;12.30;99.90
9311;DHT22;4694;52.464;13.480;2024-02-15T09:42:52;12.30;99.90
9311;DHT22;4694;52.464;13.480;2024-02-15T09:45:19;12.40;99.90
9311;DHT22;4694;52.464;13.480;2024-02-15T09:47:47;12.30;99.90
9311;DHT22;4694;52.464;13.480;2024-02-15T09:50:16;12.20;99.90
9311;DHT22;4694;52.464;13.480;2024-02-15T09:52:45;12.10;99.90
9311;DHT22;4694;52.464;13.480;2024-02-15T09:55:14;12.10;99.90
9311;DHT22;4694;52.464;13.480;2024-02-15T09:57:42;12.10;99.90
9311;DHT22;4694;52.464;13.480;2024-02-15T10:00:10;12.10;99.90
9311;DHT22;4694;52.464;13.480;2024-02-15T10:02:40;12.00;99.90
9311;DHT22;4694;52.464;13.480;2024-02-15T10:05:07;12.10;99.90
9311;DHT22;4694;52.464;13.480;2024-02-15T10:07:37;12.10;99.90
9311;DHT22;4694;52.464;13.480;2024-02-15T10:10:16;12.10;99.90
9311;DHT22;4694;52.464;13.480;2024-02-15T10:12:45;12.10;99.90
9311;DHT22;4694;52.464;13.480;2024-02-15T10:15:27;12.10;99.90
9311;DHT22;4694;52.464;13.480;2024-02-15T10:17:55;12.10;99.90
9311;DHT22;4694;52.464;13.480;2024-02-15T10:20:22;12.20;99.90
9311;DHT22;4694;52.464;13.480;2024-02-15T10:22:51;12.20;99.90
9311;DHT22;4694;52.464;13.480;2024-02-15T10:25:20;12.30;99.90
9311;DHT22;4694;52.464;13.480;2024-02-15T10:27:48;12.40;99.90
9311;DHT22;4694;52.464;13.480;2024-02-15T10:30:16;12.50;99.90
9311;DHT22;4694;52.464;13.480;2024-02-15T10:32:43;12.60;99.90
9311;DHT22;4694;52.464;13.480;2024-02-15T10:35:10;12.60;99.90
9311;DHT22;4694;52.464;13.480;2024-02-15T10:37:41;12.60;99.90
9311;DHT22;4694;52.464;13.480;2024-02-15T10:40:08;12.70;99.90
9311;DHT22;4694;52.464;13.480;2024-02-15T10:42:36;12.80;99.90
9311;DHT22;4694;52.464;13.480;2024-02-15T10:45:03;12.80;99.90
9311;DHT22;4694;52.464;13.480;2024-02-15T10:47:36;12.80;99.90
9311;DHT22;4694;52.464;13.480;2024-02-15T10:50:04;12.80;99.90
9311;DHT22;4694;52.464;13.480;2024-02-15T10:52:32;12.90;99.90
9311;DHT22;4694;52.464;13.480;2024-02-15T10:55:03;12.90;99.90
9311;DHT22;4694;52.464;13.480;2024-02-15T10:57:31;12.90;99.90
9311;DHT22;4694;52.464;13.480;2024-02-15T11:00:02;12.90;99.90
9311;DHT22;4694;52.464;13.480;2024-02-15T11:02:37;13.00;99.90
9311;DHT22;4694;52.464;13.480;2024-02-15T11:05:09;13.10;99.90
9311;DHT22;4694;52.464;13.480;2024-02-15T11:07:38;13.20;99.90
9311;DHT22;4694;52.464;13.480;2024-02-15T11:10:06;13.20;99.90
9311;DHT22;4694;52.464;13.480;2024-02-15T11:12:34;13.30;99.90
9311;DHT22;4694;52.464;13.480;2024-02-15T11:15:04;13.40;99.90
9311;DHT22;4694;52.464;13.480;2024-02-15T11:17:48;13.50;99.90
9311;DHT22;4694;52.464;13.480;2024-02-15T11:20:46;13.60;99.90
9311;DHT22;4694;52.464;13.480;2024-02-15T11:23:23;13.70;99.90
9311;DHT22;4694;52.464;13.480;2024-02-15T11:25:50;13.80;99.90
9311;DHT22;4694;52.464;13.480;2024-02-15T11:28:45;14.00;99.90
9311;DHT22;4694;52.464;13.480;2024-02-15T11:34:45;14.00;99.90
9311;DHT22;4694;52.464;13.480;2024-02-15T11:37:49;14.00;99.90
9311;DHT22;4694;52.464;13.480;2024-02-15T11:40:18;13.90;99.90
9311;DHT22;4694;52.464;13.480;2024-02-15T11:42:45;14.00;99.90
9311;DHT22;4694;52.464;13.480;2024-02-15T11:45:13;14.00;99.90
9311;DHT22;4694;52.464;13.480;2024-02-15T11:47:47;14.10;99.90
9311;DHT22;4694;52.464;13.480;2024-02-15T11:50:17;14.10;99.90
9311;DHT22;4694;52.464;13.480;2024-02-15T11:52:44;14.10;99.90
9311;DHT22;4694;52.464;13.480;2024-02-15T11:55:11;14.10;99.90
9311;DHT22;4694;52.464;13.480;2024-02-15T11:57:38;14.00;99.90
9311;DHT22;4694;52.464;13.480;2024-02-15T12:00:23;13.90;99.90
9311;DHT22;4694;52.464;13.480;2024-02-15T12:03:09;13.80;99.90
9311;DHT22;4694;52.464;13.480;2024-02-15T12:05:55;13.80;99.90
9311;DHT22;4694;52.464;13.480;2024-02-15T12:08:39;13.70;99.90
9311;DHT22;4694;52.464;13.480;2024-02-15T12:11:27;13.70;99.90
9311;DHT22;4694;52.464;13.480;2024-02-15T12:14:12;13.60;99.90
9311;DHT22;4694;52.464;13.480;2024-02-15T12:17:04;13.50;99.90
9311;DHT22;4694;52.464;13.480;2024-02-15T12:19:49;13.50;99.90
9311;DHT22;4694;52.464;13.480;2024-02-15T12:22:21;13.50;99.90
9311;DHT22;4694;52.464;13.480;2024-02-15T12:24:53;13.50;99.90
9311;DHT22;4694;52.464;13.480;2024-02-15T12:27:22;13.50;99.90
9311;DHT22;4694;52.464;13.480;2024-02-15T12:29:55;13.60;99.90
9311;DHT22;4694;52.464;13.480;2024-02-15T12:32:23;13.50;99.90
9311;DHT22;4694;52.464;13.480;2024-02-15T12:34:51;13.60;99.90
9311;DHT22;4694;52.464;13.480;2024-02-15T12:37:19;13.60;99.90
9311;DHT22;4694;52.464;13.480;2024-02-15T12:39:47;13.60;99.90
9311;DHT22;4694;52.464;13.480;2024-02-15T12:42:14;13.70;99.90
9311;DHT22;4694;52.464;13.480;2024-02-15T12:44:43;13.80;99.90
9311;DHT22;4694;52.464;13.480;2024-02-15T12:47:18;13.80;99.90
9311;DHT22;4694;52.464;13.480;2024-02-15T12:49:45;13.90;99.90
9311;DHT22;4694;52.464;13.480;2024-02-15T12:52:35;14.00;99.90
9311;DHT22;4694;52.464;13.480;2024-02-15T12:55:15;14.10;99.90
9311;DHT22;4694;52.464;13.480;2024-02-15T12:57:43;14.30;99.90
9311;DHT22;4694;52.464;13.480;2024-02-15T13:00:14;14.50;99.90
9311;DHT22;4694;52.464;13.480;2024-02-15T13:02:44;14.60;99.90
9311;DHT22;4694;52.464;13.480;2024-02-15T13:05:11;14.80;99.90
9311;DHT22;4694;52.464;13.480;2024-02-15T13:07:40;14.80;99.90
9311;DHT22;4694;52.464;13.480;2024-02-15T13:10:07;14.80;99.90
9311;DHT22;4694;52.464;13.480;2024-02-15T13:12:35;14.80;99.90
9311;DHT22;4694;52.464;13.480;2024-02-15T13:15:03;14.80;99.90
9311;DHT22;4694;52.464;13.480;2024-02-15T13:17:30;14.90;99.90
9311;DHT22;4694;52.464;13.480;2024-02-15T13:19:57;15.10;99.90
9311;DHT22;4694;52.464;13.480;2024-02-15T13:22:31;15.30;99.90
9311;DHT22;4694;52.464;13.480;2024-02-15T13:24:59;15.30;99.90
9311;DHT22;4694;52.464;13.480;2024-02-15T13:27:25;15.30;99.90
9311;DHT22;4694;52.464;13.480;2024-02-15T13:29:52;15.30;99.90
9311;DHT22;4694;52.464;13.480;2024-02-15T13:32:20;15.20;99.90
9311;DHT22;4694;52.464;13.480;2024-02-15T13:34:47;15.20;99.90
9311;DHT22;4694;52.464;13.480;2024-02-15T13:37:17;15.10;99.90
9311;DHT22;4694;52.464;13.480;2024-02-15T13:39:46;15.00;99.90
9311;DHT22;4694;52.464;13.480;2024-02-15T13:42:14;14.90;99.90
9311;DHT22;4694;52.464;13.480;2024-02-15T13:44:42;14.90;99.90
9311;DHT22;4694;52.464;13.480;2024-02-15T13:47:08;14.90;99.90
9311;DHT22;4694;52.464;13.480;2024-02-15T13:49:37;14.80;99.90
9311;DHT22;4694;52.464;13.480;2024-02-15T13:52:04;14.80;99.90
9311;DHT22;4694;52.464;13.480;2024-02-15T13:54:31;14.90;99.90
9311;DHT22;4694;52.464;13.480;2024-02-15T13:56:59;14.90;99.90
9311;DHT22;4694;52.464;13.480;2024-02-15T13:59:28;14.80;99.90
9311;DHT22;4694;52.464;13.480;2024-02-15T14:01:55;14.80;99.90
9311;DHT22;4694;52.464;13.480;2024-02-15T14:04:22;14.70;99.90
9311;DHT22;4694;52.464;13.480;2024-02-15T14:06:49;14.60;99.90
9311;DHT22;4694;52.464;13.480;2024-02-15T14:09:15;14.60;99.90
9311;DHT22;4694;52.464;13.480;2024-02-15T14:11:43;14.60;99.90
9311;DHT22;4694;52.464;13.480;2024-02-15T14:14:10;14.60;99.90
9311;DHT22;4694;52.464;13.480;2024-02-15T14:16:38;14.60;99.90
9311;DHT22;4694;52.464;13.480;2024-02-15T14:19:04;14.60;99.90
9311;DHT22;4694;52.464;13.480;2024-02-15T14:21:31;14.60;99.90
9311;DHT22;4694;52.464;13.480;2024-02-15T14:24:05;14.60;99.90
9311;DHT22;4694;52.464;13.480;2024-02-15T14:26:32;14.60;99.90
9311;DHT22;4694;52.464;13.480;2024-02-15T14:28:59;14.50;99.90
9311;DHT22;4694;52.464;13.480;2024-02-15T14:31:28;14.40;99.90
9311;DHT22;4694;52.464;13.480;2024-02-15T14:34:15;14.30;99.90
9311;DHT22;4694;52.464;13.480;2024-02-15T14:36:43;14.30;99.90
9311;DHT22;4694;52.464;13.480;2024-02-15T14:39:11;14.40;99.90
9311;DHT22;4694;52.464;13.480;2024-02-15T14:41:39;14.40;99.90
9311;DHT22;4694;52.464;13.480;2024-02-15T14:44:06;14.40;99.90
9311;DHT22;4694;52.464;13.480;2024-02-15T14:46:34;14.30;99.90
9311;DHT22;4694;52.464;13.480;2024-02-15T14:49:01;14.30;99.90
9311;DHT22;4694;52.464;13.480;2024-02-15T14:51:29;14.30;99.90
9311;DHT22;4694;52.464;13.480;2024-02-15T14:53:57;14.20;99.90
9311;DHT22;4694;52.464;13.480;2024-02-15T14:56:24;14.10;99.90
9311;DHT22;4694;52.464;13.480;2024-02-15T14:58:50;14.10;99.90
9311;DHT22;4694;52.464;13.480;2024-02-15T15:01:17;14.10;99.90
9311;DHT22;4694;52.464;13.480;2024-02-15T15:03:53;14.10;99.90
9311;DHT22;4694;52.464;13.480;2024-02-15T15:06:20;14.00;99.90
9311;DHT22;4694;52.464;13.480;2024-02-15T15:09:05;14.00;99.90
9311;DHT22;4694;52.464;13.480;2024-02-15T15:11:49;13.90;99.90
9311;DHT22;4694;52.464;13.480;2024-02-15T15:14:34;13.90;99.90
9311;DHT22;4694;52.464;13.480;2024-02-15T15:17:00;13.80;99.90
9311;DHT22;4694;52.464;13.480;2024-02-15T15:19:27;13.80;99.90
9311;DHT22;4694;52.464;13.480;2024-02-15T15:21:55;13.80;99.90
9311;DHT22;4694;52.464;13.480;2024-02-15T15:24:22;13.80;99.90
9311;DHT22;4694;52.464;13.480;2024-02-15T15:26:49;13.80;99.90
9311;DHT22;4694;52.464;13.480;2024-02-15T15:29:16;13.80;99.90
9311;DHT22;4694;52.464;13.480;2024-02-15T15:31:42;13.90;99.90
9311;DHT22;4694;52.464;13.480;2024-02-15T15:34:10;13.90;99.90
9311;DHT22;4694;52.464;13.480;2024-02-15T15:36:36;13.90;99.90
9311;DHT22;4694;52.464;13.480;2024-02-15T15:39:03;13.80;99.90
9311;DHT22;4694;52.464;13.480;2024-02-15T15:41:37;13.70;99.90
9311;DHT22;4694;52.464;13.480;2024-02-15T15:44:04;13.70;99.90
9311;DHT22;4694;52.464;13.480;2024-02-15T15:46:31;13.70;99.90
9311;DHT22;4694;52.464;13.480;2024-02-15T15:48:59;13.60;99.90
9311;DHT22;4694;52.464;13.480;2024-02-15T15:51:26;13.60;99.90
9311;DHT22;4694;52.464;13.480;2024-02-15T15:53:53;13.60;99.90
9311;DHT22;4694;52.464;13.480;2024-02-15T15:56:20;13.50;99.90
9311;DHT22;4694;52.464;13.480;2024-02-15T15:58:48;13.50;99.90
9311;DHT22;4694;52.464;13.480;2024-02-15T16:01:14;13.40;99.90
9311;DHT22;4694;52.464;13.480;2024-02-15T16:03:42;13.40;99.90
9311;DHT22;4694;52.464;13.480;2024-02-15T16:06:09;13.40;99.90
9311;DHT22;4694;52.464;13.480;2024-02-15T16:08:37;13.30;99.90